Time;durP1;ratioP1;P1;durP2;ratioP2;P2;SDS_P1;SDS_P2;PMS_P1;PMS_P2;Temp;Humidity;BMP_temperature;BMP_pressure;BME280_temperature;BME280_humidity;BME280_pressure;Samples;Min_cycle;Max_cycle;Signal;HPM_P1;HPM_P2
2023/07/02 00:01:06;;;;;;;1.55;0.80;;;;;;;;;;5068885;28;20039;-77
2023/07/02 00:03:32;;;;;;;1.52;0.65;;;;;;;;;;5075641;28;20031;-78
2023/07/02 00:05:57;;;;;;;2.47;0.68;;;17.00;99.90;;;;;;5071856;28;20043;-79
2023/07/02 00:08:23;;;;;;;2.08;1.05;;;;;;;;;;5075233;28;20071;-80
2023/07/02 00:10:49;;;;;;;2.50;1.05;;;;;;;;;;5074242;28;20035;-78
2023/07/02 00:13:15;;;;;;;3.22;1.38;;;;;;;;;;5071308;28;20058;-79
2023/07/02 00:15:41;;;;;;;2.28;1.35;;;;;;;;;;5080663;28;20032;-78
2023/07/02 00:18:07;;;;;;;2.17;0.90;;;;;;;;;;5076547;28;20028;-79
2023/07/02 00:20:37;;;;;;;3.15;1.25;;;;;;;;;;5082768;28;20024;-79
2023/07/02 00:23:04;;;;;;;2.35;1.13;;;;;;;;;;5070554;28;20036;-79
2023/07/02 00:25:30;;;;;;;1.80;1.02;;;;;;;;;;5071212;28;20135;-78
2023/07/02 00:27:56;;;;;;;2.40;0.93;;;;;;;;;;5070252;28;20312;-78
2023/07/02 00:30:22;;;;;;;3.53;1.20;;;;;;;;;;5074766;28;20543;-79
2023/07/02 00:32:47;;;;;;;1.77;0.82;;;17.50;99.90;;;;;;5072117;28;20111;-78
2023/07/02 00:35:13;;;;;;;1.77;0.98;;;;;;;;;;5067818;28;20556;-77
2023/07/02 00:37:39;;;;;;;2.40;1.13;;;;;;;;;;5072042;28;20031;-77
2023/07/02 00:40:06;;;;;;;1.50;0.68;;;;;;;;;;5071250;28;20028;-78
2023/07/02 00:42:31;;;;;;;2.58;0.95;;;17.30;99.90;;;;;;5071425;28;20020;-79
2023/07/02 00:45:02;;;;;;;2.40;0.80;;;;;;;;;;5074430;28;20245;-78
2023/07/02 00:47:28;;;;;;;2.83;1.63;;;;;;;;;;5075153;28;20035;-79
2023/07/02 00:49:54;;;;;;;1.52;0.80;;;;;;;;;;5074184;28;20119;-79
2023/07/02 00:52:21;;;;;;;2.00;0.95;;;;;;;;;;5072468;28;20738;-78
2023/07/02 00:54:47;;;;;;;3.25;1.52;;;;;;;;;;5073527;28;20025;-79
2023/07/02 00:57:13;;;;;;;1.70;1.08;;;;;;;;;;5074541;28;20021;-79
2023/07/02 00:59:39;;;;;;;2.55;1.08;;;;;;;;;;5072558;28;20123;-78
2023/07/02 01:02:06;;;;;;;1.35;0.80;;;;;;;;;;5070624;28;20052;-79
2023/07/02 01:04:32;;;;;;;3.10;1.25;;;;;;;;;;5073329;28;20028;-81
2023/07/02 01:06:58;;;;;;;4.45;1.10;;;;;;;;;;5071970;28;20089;-79
2023/07/02 01:09:27;;;;;;;1.55;0.80;;;;;;;;;;5070596;28;20040;-78
2023/07/02 01:12:02;;;;;;;3.25;1.20;;;16.40;99.90;;;;;;5070474;28;20586;-79
2023/07/02 01:14:36;;;;;;;3.83;1.23;;;;;;;;;;5070314;28;20431;-78
2023/07/02 01:17:06;;;;;;;1.92;0.82;;;;;;;;;;5075895;28;20032;-78
2023/07/02 01:19:51;;;;;;;2.42;1.20;;;15.90;99.90;;;;;;5078060;28;21486;-78
2023/07/02 01:22:27;;;;;;;1.30;0.77;;;16.30;99.90;;;;;;5069424;28;20047;-78
2023/07/02 01:24:54;;;;;;;2.92;1.35;;;16.00;99.90;;;;;;5070117;28;20037;-79
2023/07/02 01:27:21;;;;;;;2.78;0.77;;;16.40;99.90;;;;;;5075954;28;20024;-80
2023/07/02 01:29:47;;;;;;;2.40;1.10;;;;;;;;;;5075866;28;20032;-79
2023/07/02 01:32:14;;;;;;;2.35;0.95;;;15.40;99.90;;;;;;5079677;28;20095;-79
2023/07/02 01:34:40;;;;;;;2.38;1.38;;;;;;;;;;5069883;28;20035;-80
2023/07/02 01:37:05;;;;;;;2.28;1.10;;;15.80;99.90;;;;;;5079126;28;20070;-81
2023/07/02 01:39:32;;;;;;;1.98;1.02;;;;;;;;;;5081792;28;20028;-80
2023/07/02 01:42:08;;;;;;;1.90;1.20;;;15.90;99.90;;;;;;5081779;28;20020;-79
2023/07/02 01:44:33;;;;;;;3.72;1.27;;;16.60;99.90;;;;;;5077660;28;20094;-80
2023/07/02 01:46:59;;;;;;;2.20;1.08;;;;;;;;;;5079846;28;20425;-80
2023/07/02 01:49:25;;;;;;;4.68;1.38;;;;;;;;;;5085427;28;20127;-79
2023/07/02 01:51:51;;;;;;;4.43;1.50;;;;;;;;;;5082800;28;20050;-79
2023/07/02 01:54:18;;;;;;;2.15;1.02;;;15.60;99.90;;;;;;5082616;28;20078;-78
2023/07/02 01:56:44;;;;;;;2.90;1.10;;;;;;;;;;5098025;28;20032;-78
2023/07/02 01:59:11;;;;;;;7.38;1.52;;;;;;;;;;5095108;28;20031;-77
2023/07/02 02:01:40;;;;;;;6.97;1.58;;;;;;;;;;5087457;28;20332;-78
2023/07/02 02:04:06;;;;;;;1.88;0.98;;;;;;;;;;5083871;28;20217;-77
2023/07/02 02:06:32;;;;;;;2.50;1.15;;;;;;;;;;5072742;28;20111;-80
2023/07/02 02:08:59;;;;;;;1.58;0.80;;;16.70;99.90;;;;;;5074765;28;20044;-80
2023/07/02 02:11:25;;;;;;;2.15;1.27;;;15.70;99.90;;;;;;5071876;28;20024;-79
2023/07/02 02:13:51;;;;;;;4.50;1.25;;;;;;;;;;5080673;28;20062;-78
2023/07/02 02:16:17;;;;;;;4.53;1.33;;;;;;;;;;5078844;28;20063;-81
2023/07/02 02:18:43;;;;;;;1.80;1.00;;;;;;;;;;5085670;28;20068;-80
2023/07/02 02:21:09;;;;;;;2.60;1.13;;;16.60;99.90;;;;;;5079809;28;20032;-80
2023/07/02 02:23:35;;;;;;;2.03;0.88;;;;;;;;;;5079877;28;20043;-80
2023/07/02 02:26:01;;;;;;;3.88;1.10;;;;;;;;;;5077246;28;20135;-81
2023/07/02 02:28:27;;;;;;;4.53;1.08;;;;;;;;;;5080723;28;20032;-80
2023/07/02 02:30:53;;;;;;;5.32;1.38;;;;;;;;;;5078480;28;20086;-79
2023/07/02 02:33:19;;;;;;;4.05;1.38;;;;;;;;;;5076970;28;20032;-80
2023/07/02 02:35:46;;;;;;;3.25;1.20;;;;;;;;;;5081450;28;20047;-79
2023/07/02 02:38:11;;;;;;;3.38;1.30;;;16.20;99.90;;;;;;5080870;28;20503;-80
2023/07/02 02:40:37;;;;;;;2.45;1.30;;;15.90;99.90;;;;;;5077519;28;20028;-80
2023/07/02 02:43:03;;;;;;;4.63;1.15;;;;;;;;;;5078472;28;20028;-81
2023/07/02 02:45:29;;;;;;;6.95;1.45;;;;;;;;;;5077320;28;20594;-80
2023/07/02 02:47:55;;;;;;;4.75;1.15;;;;;;;;;;5080042;28;20621;-80
2023/07/02 02:50:21;;;;;;;3.90;1.48;;;;;;;;;;5079339;28;20024;-79
2023/07/02 02:52:47;;;;;;;4.13;2.03;;;;;;;;;;5076913;28;20079;-81
2023/07/02 02:55:13;;;;;;;2.40;1.40;;;;;;;;;;5079146;28;20062;-81
2023/07/02 02:57:39;;;;;;;2.22;0.98;;;;;;;;;;5079590;28;20033;-78
2023/07/02 03:00:06;;;;;;;2.53;0.98;;;16.20;99.90;;;;;;5081389;28;20024;-79
2023/07/02 03:02:32;;;;;;;2.78;1.17;;;;;;;;;;5080586;28;20517;-79
2023/07/02 03:05:02;;;;;;;8.75;1.83;;;;;;;;;;5073040;28;20162;-79
2023/07/02 03:07:28;;;;;;;2.75;1.05;;;;;;;;;;5078183;28;20043;-80
2023/07/02 03:09:54;;;;;;;3.67;1.42;;;;;;;;;;5077128;28;20040;-80
2023/07/02 03:12:20;;;;;;;3.33;1.35;;;;;;;;;;5078791;28;20036;-80
2023/07/02 03:14:47;;;;;;;2.13;1.23;;;;;;;;;;5078798;28;20599;-79
2023/07/02 03:17:13;;;;;;;4.90;1.70;;;;;;;;;;5072489;28;20201;-80
2023/07/02 03:19:39;;;;;;;3.10;1.15;;;;;;;;;;5074555;28;20036;-80
2023/07/02 03:22:05;;;;;;;3.03;1.00;;;;;;;;;;5074517;28;20107;-79
2023/07/02 03:24:31;;;;;;;2.75;1.30;;;;;;;;;;5071790;28;20035;-79
2023/07/02 03:26:57;;;;;;;3.20;1.42;;;;;;;;;;5076438;28;20021;-79
2023/07/02 03:29:23;;;;;;;4.00;0.93;;;;;;;;;;5076285;28;20081;-80
2023/07/02 03:31:49;;;;;;;2.40;1.20;;;;;;;;;;5080300;28;20386;-80
2023/07/02 03:34:15;;;;;;;2.10;0.93;;;;;;;;;;5078109;28;20027;-79
2023/07/02 03:36:41;;;;;;;1.88;0.82;;;;;;;;;;5074998;28;20039;-80
2023/07/02 03:39:07;;;;;;;3.08;1.05;;;;;;;;;;5073606;28;20050;-80
2023/07/02 03:41:33;;;;;;;1.52;0.82;;;;;;;;;;5078855;28;20028;-80
2023/07/02 03:43:59;;;;;;;2.92;1.05;;;;;;;;;;5072603;28;20026;-80
2023/07/02 03:46:25;;;;;;;3.50;0.73;;;;;;;;;;5080626;28;20040;-79
2023/07/02 03:48:50;;;;;;;2.90;1.08;;;;;;;;;;5077469;28;20044;-81
2023/07/02 03:51:17;;;;;;;3.25;1.50;;;;;;;;;;5077928;28;20027;-79
2023/07/02 03:53:43;;;;;;;1.45;1.00;;;;;;;;;;5079707;28;20035;-80
2023/07/02 03:56:09;;;;;;;2.50;1.20;;;;;;;;;;5083198;28;20024;-80
2023/07/02 03:58:35;;;;;;;4.05;0.90;;;;;;;;;;5076142;28;20104;-80
2023/07/02 04:01:01;;;;;;;1.70;0.88;;;;;;;;;;5077256;28;20104;-81
2023/07/02 04:03:27;;;;;;;4.70;1.08;;;;;;;;;;5075575;28;20115;-78
2023/07/02 04:05:53;;;;;;;1.40;0.80;;;;;;;;;;5068784;28;20193;-80
2023/07/02 04:08:20;;;;;;;3.78;1.02;;;;;;;;;;5073978;28;20032;-80
2023/07/02 04:10:47;;;;;;;5.72;1.02;;;;;;;;;;5074259;28;20482;-80
2023/07/02 04:13:12;;;;;;;3.10;1.48;;;;;;;;;;5082298;28;20032;-78
2023/07/02 04:15:38;;;;;;;3.25;1.15;;;;;;;;;;5090561;28;20193;-78
2023/07/02 04:18:04;;;;;;;3.78;1.13;;;;;;;;;;5096188;28;20104;-78
2023/07/02 04:20:30;;;;;;;7.55;0.98;;;;;;;;;;5074019;28;20024;-79
2023/07/02 04:22:56;;;;;;;1.88;1.15;;;;;;;;;;5047584;28;20039;-79
2023/07/02 04:25:22;;;;;;;2.47;1.20;;;;;;;;;;5057212;28;20057;-79
2023/07/02 04:27:48;;;;;;;2.65;1.40;;;16.80;99.90;;;;;;5058128;28;20062;-79
2023/07/02 04:30:14;;;;;;;3.50;1.27;;;16.80;99.90;;;;;;5082386;28;20137;-78
2023/07/02 04:32:40;;;;;;;5.55;1.50;;;;;;;;;;5084600;28;20020;-81
2023/07/02 04:35:07;;;;;;;6.40;1.75;;;16.80;99.90;;;;;;5080002;28;20031;-80
2023/07/02 04:37:33;;;;;;;4.15;1.60;;;;;;;;;;5079121;28;20488;-78
2023/07/02 04:39:59;;;;;;;7.40;2.78;;;;;;;;;;5051884;28;20024;-80
2023/07/02 04:42:27;;;;;;;5.72;2.17;;;16.90;99.90;;;;;;5067582;28;20031;-80
2023/07/02 04:44:54;;;;;;;7.47;2.20;;;17.20;99.90;;;;;;5053192;28;20078;-80
2023/07/02 04:47:20;;;;;;;4.43;2.10;;;16.90;99.90;;;;;;5068319;28;20028;-81
2023/07/02 04:49:46;;;;;;;12.63;2.85;;;;;;;;;;5074933;28;20040;-80
2023/07/02 04:52:12;;;;;;;8.07;2.53;;;;;;;;;;5067633;28;20359;-79
2023/07/02 04:54:38;;;;;;;6.90;2.70;;;;;;;;;;5059700;28;20056;-80
2023/07/02 04:57:04;;;;;;;6.32;2.50;;;;;;;;;;5061955;28;20567;-80
2023/07/02 04:59:30;;;;;;;12.93;3.33;;;;;;;;;;5056884;28;20553;-80
2023/07/02 05:01:56;;;;;;;8.68;3.25;;;;;;;;;;5054334;28;20123;-79
2023/07/02 05:04:22;;;;;;;7.63;2.70;;;;;;;;;;5060683;28;20561;-78
2023/07/02 05:06:48;;;;;;;9.23;3.15;;;;;;;;;;5056919;28;20028;-80
2023/07/02 05:09:14;;;;;;;6.55;2.88;;;;;;;;;;5052315;28;20052;-80
2023/07/02 05:11:40;;;;;;;6.13;2.35;;;;;;;;;;5070430;28;20078;-80
2023/07/02 05:14:06;;;;;;;7.07;2.80;;;;;;;;;;5075144;28;20526;-81
2023/07/02 05:16:31;;;;;;;7.22;2.08;;;17.20;99.90;;;;;;5073144;28;20024;-78
2023/07/02 05:18:57;;;;;;;5.25;1.95;;;;;;;;;;5079614;28;20066;-80
2023/07/02 05:21:23;;;;;;;4.80;1.85;;;;;;;;;;5056434;28;20123;-81
2023/07/02 05:23:49;;;;;;;7.13;2.28;;;;;;;;;;5060876;28;20035;-80
2023/07/02 05:26:15;;;;;;;2.83;1.45;;;;;;;;;;5066473;28;20027;-78
2023/07/02 05:28:41;;;;;;;5.78;2.28;;;;;;;;;;5075768;28;20401;-81
2023/07/02 05:31:07;;;;;;;9.02;2.35;;;;;;;;;;5075985;28;20024;-80
2023/07/02 05:33:33;;;;;;;8.40;1.92;;;;;;;;;;5067057;28;20024;-80
2023/07/02 05:35:59;;;;;;;5.47;2.08;;;;;;;;;;5077649;28;20024;-81
2023/07/02 05:38:25;;;;;;;8.00;2.22;;;;;;;;;;5077406;28;20032;-79
2023/07/02 05:40:51;;;;;;;6.55;2.35;;;18.30;99.90;;;;;;5085660;28;20028;-80
2023/07/02 05:43:17;;;;;;;6.57;2.40;;;;;;;;;;5081285;28;20036;-78
2023/07/02 05:45:43;;;;;;;5.28;2.15;;;;;;;;;;5078756;28;20039;-80
2023/07/02 05:48:09;;;;;;;6.00;2.72;;;;;;;;;;5066826;28;20048;-78
2023/07/02 05:50:35;;;;;;;9.43;1.92;;;;;;;;;;5072935;28;20035;-78
2023/07/02 05:53:01;;;;;;;7.78;1.77;;;;;;;;;;5079919;28;20047;-80
2023/07/02 05:55:27;;;;;;;5.85;2.53;;;;;;;;;;5080203;28;20028;-79
2023/07/02 05:57:53;;;;;;;6.65;2.60;;;;;;;;;;5067893;28;20888;-78
2023/07/02 06:00:19;;;;;;;10.57;1.75;;;;;;;;;;5063310;28;21277;-78
2023/07/02 06:02:46;;;;;;;4.50;1.92;;;;;;;;;;5059018;28;20073;-77
2023/07/02 06:05:12;;;;;;;6.47;2.28;;;;;;;;;;5056153;28;20036;-77
2023/07/02 06:07:38;;;;;;;9.57;2.70;;;;;;;;;;5061016;28;20034;-79
2023/07/02 06:10:04;;;;;;;5.07;1.73;;;;;;;;;;5058674;28;20039;-78
2023/07/02 06:12:30;;;;;;;9.40;3.05;;;;;;;;;;5072002;28;20028;-79
2023/07/02 06:14:56;;;;;;;9.18;2.60;;;19.40;99.90;;;;;;5050980;28;20044;-78
2023/07/02 06:17:22;;;;;;;4.53;2.38;;;;;;;;;;5047446;28;20077;-77
2023/07/02 06:19:48;;;;;;;10.75;2.55;;;;;;;;;;5067655;28;20085;-76
2023/07/02 06:22:14;;;;;;;5.72;2.25;;;;;;;;;;5075023;28;20611;-76
2023/07/02 06:24:40;;;;;;;3.97;1.90;;;19.90;99.90;;;;;;5074614;28;20037;-79
2023/07/02 06:27:05;;;;;;;5.95;2.08;;;20.20;99.90;;;;;;5071481;28;20032;-79
2023/07/02 06:29:31;;;;;;;6.53;2.20;;;;;;;;;;5062082;28;20085;-79
2023/07/02 06:31:57;;;;;;;13.90;2.85;;;;;;;;;;5071145;28;20043;-77
2023/07/02 06:34:23;;;;;;;6.90;2.58;;;;;;;;;;5076724;28;20028;-78
2023/07/02 06:36:49;;;;;;;7.75;3.15;;;;;;;;;;5078251;28;20769;-79
2023/07/02 06:39:15;;;;;;;9.65;2.38;;;22.30;99.90;;;;;;5077168;28;20389;-79
2023/07/02 06:41:41;;;;;;;7.78;2.85;;;;;;;;;;5076643;28;20055;-77
2023/07/02 06:44:06;;;;;;;9.85;2.38;;;;;;;;;;5082461;28;20032;-78
2023/07/02 06:46:32;;;;;;;8.30;2.60;;;;;;;;;;5075063;28;20049;-80
2023/07/02 06:48:58;;;;;;;5.53;2.38;;;;;;;;;;5067667;28;22355;-79
2023/07/02 06:51:26;;;;;;;6.85;3.13;;;;;;;;;;5060009;28;20032;-79
2023/07/02 06:53:52;;;;;;;5.20;1.95;;;;;;;;;;5063073;28;20055;-78
2023/07/02 06:56:18;;;;;;;9.85;2.70;;;;;;;;;;5060098;28;21047;-79
2023/07/02 06:58:44;;;;;;;8.43;2.97;;;25.70;99.70;;;;;;5051582;28;20130;-79
2023/07/02 07:01:10;;;;;;;6.38;2.40;;;;;;;;;;5064606;28;20040;-80
2023/07/02 07:03:36;;;;;;;6.53;3.00;;;;;;;;;;5064391;28;22317;-78
2023/07/02 07:06:02;;;;;;;4.70;1.60;;;;;;;;;;5061311;28;20109;-79
2023/07/02 07:08:29;;;;;;;7.53;2.60;;;;;;;;;;5065363;28;20044;-78
2023/07/02 07:10:55;;;;;;;8.95;2.95;;;;;;;;;;5067047;28;20024;-79
2023/07/02 07:13:21;;;;;;;6.15;2.22;;;;;;;;;;5077172;28;20028;-79
2023/07/02 07:15:47;;;;;;;6.68;2.72;;;;;;;;;;5076399;28;20020;-78
2023/07/02 07:18:13;;;;;;;6.03;2.45;;;;;;;;;;5081190;28;20024;-79
2023/07/02 07:20:42;;;;;;;5.20;2.42;;;26.60;81.10;;;;;;5076687;28;20024;-78
2023/07/02 07:23:08;;;;;;;7.55;2.60;;;;;;;;;;5073180;28;20040;-79
2023/07/02 07:25:34;;;;;;;6.90;2.97;;;;;;;;;;5084721;28;20047;-78
2023/07/02 07:28:00;;;;;;;8.35;2.92;;;27.30;95.10;;;;;;5091095;28;21397;-79
2023/07/02 07:30:26;;;;;;;6.32;2.50;;;;;;;;;;5083802;28;20481;-80
2023/07/02 07:32:52;;;;;;;7.00;2.45;;;27.80;77.80;;;;;;5080614;28;20042;-78
2023/07/02 07:35:20;;;;;;;5.70;2.80;;;27.40;77.90;;;;;;5081103;28;20602;-78
2023/07/02 07:37:46;;;;;;;5.60;2.78;;;26.50;90.00;;;;;;5081043;28;20029;-78
2023/07/02 07:40:12;;;;;;;9.18;3.33;;;25.90;91.30;;;;;;5070745;28;20565;-78
2023/07/02 07:42:38;;;;;;;9.77;3.05;;;;;;;;;;5075205;28;20054;-78
2023/07/02 07:45:04;;;;;;;10.20;3.88;;;;;;;;;;5080813;28;20473;-78
2023/07/02 07:47:30;;;;;;;5.82;2.22;;;;;;;;;;5072665;28;20024;-78
2023/07/02 07:49:56;;;;;;;8.27;2.97;;;;;;;;;;5065750;28;20113;-79
2023/07/02 07:52:22;;;;;;;5.85;2.53;;;;;;;;;;5065904;28;20082;-78
2023/07/02 07:54:48;;;;;;;7.15;2.60;;;29.50;75.80;;;;;;5056994;28;20040;-80
2023/07/02 07:57:14;;;;;;;7.88;2.85;;;;;;;;;;5071957;28;20020;-79
2023/07/02 07:59:39;;;;;;;6.45;2.58;;;;;;;;;;5061736;28;20444;-79
2023/07/02 08:02:06;;;;;;;10.65;2.92;;;;;;;;;;5064164;28;20339;-81
2023/07/02 08:04:32;;;;;;;7.15;2.83;;;;;;;;;;5056952;28;20034;-79
2023/07/02 08:06:58;;;;;;;11.00;3.08;;;;;;;;;;5067564;28;20497;-79
2023/07/02 08:09:24;;;;;;;7.00;3.67;;;29.20;64.60;;;;;;5072852;28;20041;-78
2023/07/02 08:11:50;;;;;;;8.65;4.15;;;;;;;;;;5075416;28;20024;-80
2023/07/02 08:14:17;;;;;;;11.07;3.78;;;26.90;69.80;;;;;;5071711;28;20081;-82
2023/07/02 08:16:44;;;;;;;10.77;3.55;;;;;;;;;;5069261;28;20024;-81
2023/07/02 08:19:10;;;;;;;9.15;3.67;;;;;;;;;;5073350;28;20079;-81
2023/07/02 08:21:36;;;;;;;9.05;3.63;;;;;;;;;;5081937;28;20028;-84
2023/07/02 08:24:03;;;;;;;9.27;3.15;;;25.70;93.30;;;;;;5074238;28;20040;-82
2023/07/02 08:26:29;;;;;;;8.52;3.88;;;;;;;;;;5074498;28;20038;-79
2023/07/02 08:28:55;;;;;;;9.98;3.97;;;;;;;;;;5079393;28;20036;-81
2023/07/02 08:31:21;;;;;;;10.13;3.90;;;;;;;;;;5075135;28;20047;-78
2023/07/02 08:33:47;;;;;;;9.18;4.22;;;;;;;;;;5063552;28;20606;-79
2023/07/02 08:36:13;;;;;;;11.45;4.28;;;;;;;;;;5069381;28;20020;-80
2023/07/02 08:38:41;;;;;;;11.45;4.95;;;;;;;;;;5052284;28;20366;-78
2023/07/02 08:41:08;;;;;;;8.48;4.25;;;;;;;;;;5072553;28;20055;-77
2023/07/02 08:43:35;;;;;;;15.57;5.72;;;24.80;77.60;;;;;;5085062;28;20447;-76
2023/07/02 08:46:01;;;;;;;10.90;3.72;;;;;;;;;;5065850;28;20542;-80
2023/07/02 08:48:29;;;;;;;12.80;4.55;;;;;;;;;;5056934;28;20036;-80
2023/07/02 08:50:55;;;;;;;12.82;4.45;;;;;;;;;;5066180;28;20093;-78
2023/07/02 08:53:25;;;;;;;13.05;5.15;;;;;;;;;;5087840;28;20028;-78
2023/07/02 08:55:51;;;;;;;15.02;4.90;;;;;;;;;;5078473;28;20093;-79
2023/07/02 08:58:17;;;;;;;18.08;5.65;;;;;;;;;;5091361;28;20457;-77
2023/07/02 09:01:06;;;;;;;11.80;4.70;;;23.40;76.80;;;;;;5087228;28;20056;-77
2023/07/02 09:03:32;;;;;;;11.65;4.97;;;22.70;96.40;;;;;;5095139;28;20660;-80
2023/07/02 09:05:58;;;;;;;14.02;5.00;;;;;;;;;;5095787;28;20303;-78
2023/07/02 09:08:27;;;;;;;20.65;5.95;;;;;;;;;;5086153;28;20071;-79
2023/07/02 09:10:53;;;;;;;8.85;4.43;;;;;;;;;;5093782;28;20496;-77
2023/07/02 09:13:19;;;;;;;9.27;4.60;;;;;;;;;;5086947;28;20039;-77
2023/07/02 09:15:45;;;;;;;11.57;4.95;;;23.10;89.30;;;;;;5087845;28;20027;-77
2023/07/02 09:18:29;;;;;;;16.75;5.18;;;23.70;78.00;;;;;;5082954;28;20027;-84
2023/07/02 09:20:55;;;;;;;22.52;6.15;;;;;;;;;;5097939;28;20454;-77
2023/07/02 09:23:21;;;;;;;18.88;6.32;;;;;;;;;;5087035;28;20028;-77
2023/07/02 09:25:47;;;;;;;11.93;4.82;;;;;;;;;;5099574;28;20059;-78
2023/07/02 09:28:23;;;;;;;13.02;5.18;;;24.30;73.50;;;;;;5095018;28;20051;-78
2023/07/02 09:30:53;;;;;;;16.33;5.78;;;24.90;75.00;;;;;;5093164;28;20024;-77
2023/07/02 09:33:19;;;;;;;12.75;5.63;;;;;;;;;;5084369;28;20039;-76
2023/07/02 09:35:45;;;;;;;17.88;5.60;;;;;;;;;;5094147;28;20479;-78
2023/07/02 09:38:12;;;;;;;9.95;5.07;;;24.00;74.00;;;;;;5077921;28;20021;-79
2023/07/02 09:40:51;;;;;;;11.93;5.20;;;24.50;86.20;;;;;;5092959;28;20446;-77
2023/07/02 09:43:18;;;;;;;15.10;5.50;;;23.10;79.00;;;;;;5090576;28;20129;-78
2023/07/02 09:45:46;;;;;;;22.20;5.22;;;24.30;79.30;;;;;;5081381;28;20088;-78
2023/07/02 09:48:16;;;;;;;12.88;5.30;;;23.50;94.90;;;;;;5087421;28;20119;-82
2023/07/02 09:50:47;;;;;;;17.40;6.05;;;23.50;94.30;;;;;;5085986;28;20028;-79
2023/07/02 09:53:14;;;;;;;13.93;6.10;;;;;;;;;;5084673;28;20448;-78
2023/07/02 09:55:40;;;;;;;18.17;6.15;;;;;;;;;;5091831;28;20060;-78
2023/07/02 09:58:06;;;;;;;14.30;5.70;;;23.50;78.10;;;;;;5088480;28;20107;-81
2023/07/02 10:00:32;;;;;;;12.13;5.35;;;;;;;;;;5088059;28;20489;-85
2023/07/02 10:03:00;;;;;;;15.75;5.63;;;;;;;;;;5084735;28;20024;-81
2023/07/02 10:05:26;;;;;;;14.50;5.68;;;;;;;;;;5080362;28;20119;-81
2023/07/02 10:07:53;;;;;;;19.23;6.05;;;;;;;;;;5088391;28;20016;-81
2023/07/02 10:10:27;;;;;;;13.82;4.68;;;23.10;77.80;;;;;;5089827;28;20059;-81
2023/07/02 10:12:53;;;;;;;11.43;5.00;;;;;;;;;;5086282;28;20028;-80
2023/07/02 10:15:29;;;;;;;14.35;5.50;;;23.10;79.20;;;;;;5087387;28;20028;-82
2023/07/02 10:17:59;;;;;;;11.70;5.35;;;23.10;80.20;;;;;;5084694;28;20058;-80
2023/07/02 10:20:36;;;;;;;11.77;4.82;;;23.60;78.70;;;;;;5084588;28;20035;-80
2023/07/02 10:23:02;;;;;;;15.63;5.55;;;;;;;;;;5085651;28;20503;-81
2023/07/02 10:25:34;;;;;;;13.40;4.72;;;23.10;79.10;;;;;;5078300;28;20132;-81
2023/07/02 10:28:00;;;;;;;11.52;4.93;;;;;;;;;;5084409;28;20023;-79
2023/07/02 10:30:38;;;;;;;15.25;5.13;;;24.00;74.00;;;;;;5086778;28;20055;-80
2023/07/02 10:33:15;;;;;;;12.70;5.57;;;23.30;94.40;;;;;;5087385;28;20024;-81
2023/07/02 10:35:44;;;;;;;16.67;5.18;;;23.80;78.00;;;;;;5084139;28;20188;-82
2023/07/02 10:38:17;;;;;;;11.15;4.78;;;23.50;77.30;;;;;;5077309;28;20056;-82
2023/07/02 10:40:44;;;;;;;11.98;4.53;;;;;;;;;;5086809;28;20036;-79
2023/07/02 10:43:10;;;;;;;14.00;5.40;;;;;;;;;;5087900;28;20044;-79
2023/07/02 10:45:36;;;;;;;14.85;5.72;;;;;;;;;;5081677;28;20055;-81
2023/07/02 10:48:09;;;;;;;15.23;5.20;;;23.30;79.80;;;;;;5081050;28;20069;-82
2023/07/02 10:50:35;;;;;;;16.88;5.53;;;;;;;;;;5078761;28;20086;-83
2023/07/02 10:53:02;;;;;;;18.13;5.78;;;;;;;;;;5082943;28;20393;-79
2023/07/02 10:55:29;;;;;;;12.95;6.00;;;;;;;;;;5083122;28;20029;-82
2023/07/02 10:58:09;;;;;;;13.18;5.97;;;23.70;75.80;;;;;;5084946;28;20024;-81
2023/07/02 11:00:51;;;;;;;14.65;6.10;;;23.70;75.90;;;;;;5080238;28;20384;-83
2023/07/02 11:03:18;;;;;;;23.52;5.40;;;22.80;80.00;;;;;;5084827;28;20134;-81
2023/07/02 11:05:45;;;;;;;14.02;5.10;;;;;;;;;;5083605;28;20096;-82
2023/07/02 11:08:11;;;;;;;19.88;6.60;;;;;;;;;;5086768;28;20419;-81
2023/07/02 11:10:37;;;;;;;16.65;5.47;;;;;;;;;;5087003;28;20028;-83
2023/07/02 11:13:12;;;;;;;16.55;6.43;;;22.60;78.20;;;;;;5086737;28;20047;-84
2023/07/02 11:15:37;;;;;;;16.65;6.78;;;22.80;95.50;;;;;;5080927;28;20155;-80
2023/07/02 11:18:10;;;;;;;19.77;6.15;;;23.00;88.20;;;;;;5087788;28;20624;-82
2023/07/02 11:20:36;;;;;;;16.20;6.10;;;;;;;;;;5090823;28;20054;-80
2023/07/02 11:23:02;;;;;;;12.77;4.95;;;;;;;;;;5084430;28;20473;-81
2023/07/02 11:25:28;;;;;;;17.52;6.53;;;;;;;;;;5082069;28;20036;-81
2023/07/02 11:28:04;;;;;;;18.95;7.25;;;22.20;78.30;;;;;;5083511;28;21541;-82
2023/07/02 11:30:30;;;;;;;16.45;6.30;;;;;;;;;;5087481;28;20032;-83
2023/07/02 11:32:56;;;;;;;22.40;6.13;;;;;;;;;;5082244;28;20020;-80
2023/07/02 11:35:23;;;;;;;16.10;7.22;;;;;;;;;;5083981;28;20065;-79
2023/07/02 11:37:49;;;;;;;15.60;6.15;;;;;;;;;;5083265;28;20521;-81
2023/07/02 11:40:17;;;;;;;19.27;5.82;;;;;;;;;;5088052;28;20016;-81
2023/07/02 11:42:43;;;;;;;15.38;6.50;;;22.80;89.00;;;;;;5078977;28;20654;-81
2023/07/02 11:45:09;;;;;;;15.35;6.70;;;22.70;91.70;;;;;;5088802;28;20106;-81
2023/07/02 11:47:35;;;;;;;19.17;7.15;;;23.40;90.00;;;;;;5080138;28;20381;-80
2023/07/02 11:50:01;;;;;;;18.38;7.47;;;;;;;;;;5080564;28;20040;-82
2023/07/02 11:52:27;;;;;;;13.30;6.28;;;;;;;;;;5088679;28;20031;-82
2023/07/02 11:54:53;;;;;;;15.50;6.35;;;;;;;;;;5074778;28;20054;-82
2023/07/02 11:57:19;;;;;;;17.20;7.03;;;;;;;;;;5087788;28;20039;-83
2023/07/02 11:59:44;;;;;;;15.55;6.40;;;;;;;;;;5089937;28;20055;-81
2023/07/02 12:02:10;;;;;;;18.05;6.57;;;;;;;;;;5085198;28;20044;-83
2023/07/02 12:04:36;;;;;;;14.82;6.90;;;;;;;;;;5085847;28;20043;-80
2023/07/02 12:07:03;;;;;;;19.08;7.32;;;;;;;;;;5084705;28;20066;-79
2023/07/02 12:09:29;;;;;;;17.88;7.82;;;;;;;;;;5085757;28;20105;-81
2023/07/02 12:11:55;;;;;;;22.58;8.10;;;;;;;;;;5089514;28;20127;-78
2023/07/02 12:14:21;;;;;;;14.00;6.55;;;;;;;;;;5088535;28;20124;-81
2023/07/02 12:16:47;;;;;;;20.90;6.82;;;;;;;;;;5087814;28;20024;-80
2023/07/02 12:19:13;;;;;;;15.90;5.70;;;;;;;;;;5086237;28;20028;-82
2023/07/02 12:21:39;;;;;;;12.32;6.20;;;;;;;;;;5079212;28;20032;-81
2023/07/02 12:24:08;;;;;;;20.73;6.40;;;23.40;75.20;;;;;;5082520;28;20416;-82
2023/07/02 12:26:35;;;;;;;18.63;6.88;;;;;;;;;;5082820;28;20053;-83
2023/07/02 12:29:01;;;;;;;12.23;6.07;;;;;;;;;;5088142;28;20461;-84
2023/07/02 12:31:27;;;;;;;15.88;6.47;;;;;;;;;;5086742;28;20095;-80
2023/07/02 12:33:53;;;;;;;19.42;7.20;;;;;;;;;;5086342;28;20036;-80
2023/07/02 12:36:19;;;;;;;16.98;6.78;;;;;;;;;;5080286;28;20024;-81
2023/07/02 12:38:45;;;;;;;18.08;7.72;;;;;;;;;;5062737;28;20020;-83
2023/07/02 12:41:10;;;;;;;22.17;7.43;;;24.10;81.20;;;;;;5084969;28;20082;-82
2023/07/02 12:43:36;;;;;;;16.58;7.30;;;;;;;;;;5084013;28;20092;-82
2023/07/02 12:46:02;;;;;;;15.30;6.65;;;;;;;;;;5081899;28;20126;-81
2023/07/02 12:48:28;;;;;;;14.93;7.00;;;;;;;;;;5081931;28;20093;-80
2023/07/02 12:50:57;;;;;;;15.43;6.45;;;25.30;75.60;;;;;;5098472;28;20023;-81
2023/07/02 12:53:24;;;;;;;14.75;6.45;;;25.20;72.20;;;;;;5084489;28;20028;-81
2023/07/02 12:55:50;;;;;;;14.88;6.57;;;;;;;;;;5081968;28;20024;-81
2023/07/02 12:58:16;;;;;;;15.52;5.97;;;;;;;;;;5086002;28;20032;-82
2023/07/02 13:00:43;;;;;;;13.35;6.57;;;;;;;;;;5076361;28;20643;-81
2023/07/02 13:03:12;;;;;;;18.30;8.05;;;24.10;72.80;;;;;;5085433;28;20031;-83
2023/07/02 13:05:38;;;;;;;26.48;6.88;;;;;;;;;;5089042;28;20085;-82
2023/07/02 13:08:04;;;;;;;13.30;6.78;;;;;;;;;;5082371;28;20028;-84
2023/07/02 13:10:30;;;;;;;19.25;7.15;;;;;;;;;;5084736;28;20027;-82
2023/07/02 13:12:56;;;;;;;17.20;6.78;;;;;;;;;;5096633;28;20031;-79
2023/07/02 13:15:23;;;;;;;18.45;6.47;;;;;;;;;;5085951;28;20039;-80
2023/07/02 13:17:49;;;;;;;18.55;7.22;;;;;;;;;;5084100;28;20024;-83
2023/07/02 13:20:15;;;;;;;20.70;6.75;;;;;;;;;;5089755;28;20031;-81
2023/07/02 13:22:41;;;;;;;17.13;7.00;;;;;;;;;;5086830;28;20033;-79
2023/07/02 13:25:07;;;;;;;15.65;7.20;;;24.70;77.20;;;;;;5086914;28;20446;-82
2023/07/02 13:27:33;;;;;;;16.45;7.63;;;;;;;;;;5090167;28;20043;-80
2023/07/02 13:29:59;;;;;;;15.75;6.72;;;;;;;;;;5082251;28;20032;-83
2023/07/02 13:32:25;;;;;;;16.35;7.38;;;;;;;;;;5085188;28;20373;-83
2023/07/02 13:34:51;;;;;;;14.50;6.35;;;;;;;;;;5082493;28;20035;-81
2023/07/02 13:37:18;;;;;;;16.90;7.47;;;;;;;;;;5060640;28;20346;-82
2023/07/02 13:39:47;;;;;;;18.63;7.05;;;24.90;80.70;;;;;;5072190;28;20463;-80
2023/07/02 13:42:13;;;;;;;17.10;6.68;;;;;;;;;;5078328;28;20036;-81
2023/07/02 13:44:39;;;;;;;14.30;6.95;;;;;;;;;;5080117;28;20112;-82
2023/07/02 13:47:06;;;;;;;15.48;6.88;;;25.10;71.40;;;;;;5081901;28;20043;-80
2023/07/02 13:49:32;;;;;;;20.85;7.43;;;25.20;70.70;;;;;;5080761;28;20046;-82
2023/07/02 13:51:58;;;;;;;21.02;7.32;;;;;;;;;;5073794;28;20418;-80
2023/07/02 13:54:24;;;;;;;16.15;6.53;;;;;;;;;;5085374;28;20124;-82
2023/07/02 13:56:50;;;;;;;18.00;6.95;;;;;;;;;;5081731;28;20068;-82
2023/07/02 13:59:17;;;;;;;14.10;7.18;;;;;;;;;;5083171;28;20126;-82
2023/07/02 14:01:43;;;;;;;17.00;6.88;;;24.70;70.40;;;;;;5084935;28;20073;-83
2023/07/02 14:04:09;;;;;;;13.93;6.07;;;;;;;;;;5084192;28;20031;-79